ADDS METAR Data

Data at: 0457 UTC 20 Apr 2018

METAR for:KLEW (Auburn-Lewiston Muni, ME, US)
Text:KLEW 200356Z AUTO 31006KT 10SM SCT055 BKN075 OVC090 03/M02 A2976 RMK AO2 SLP095 T00331022 400830028
Temperature: 3.3°C ( 38°F)
Dewpoint: -2.2°C ( 28°F) [RH = 67%]
Pressure (altimeter):29.76 inches Hg (1007.9 mb) [Sea level pressure: 1009.5 mb]
Winds:from the NW (310 degrees) at 7 MPH (6 knots; 3.1 m/s)
Visibility:10 or more sm (16+ km)
Ceiling:7500 feet AGL
Clouds: scattered clouds at 5500 feet AGL, broken clouds at 7500 feet AGL, overcast cloud deck at 9000 feet AGL
QC Flag:automated observation with no human augmentation